Time;durP1;ratioP1;P1;durP2;ratioP2;P2;SDS_P1;SDS_P2;PMS_P1;PMS_P2;Temp;Humidity;BMP_temperature;BMP_pressure;BME280_temperature;BME280_humidity;BME280_pressure;Samples;Min_cycle;Max_cycle;Signal;HPM_P1;HPM_P2
2022/06/03 00:00:51;;;;;;;5.45;5.05;;;15.30;99.90;;;16.07;72.17;97999.69;5223406;28;20236;-57
2022/06/03 00:03:52;;;;;;;5.65;5.15;;;15.20;99.90;;;16.04;72.52;97999.56;5216368;28;20307;-57
2022/06/03 00:06:39;;;;;;;5.38;4.97;;;15.20;99.90;;;16.01;72.83;97991.72;5217925;28;20673;-57
2022/06/03 00:09:44;;;;;;;5.10;4.80;;;15.20;99.90;;;15.98;73.10;97997.66;5217804;28;20288;-57
2022/06/03 00:12:34;;;;;;;5.43;4.93;;;15.10;99.90;;;15.88;72.35;97990.41;5219289;28;20209;-57
2022/06/03 00:15:21;;;;;;;5.10;4.70;;;15.00;99.90;;;15.84;73.21;97982.47;5218699;28;20197;-58
2022/06/03 00:18:15;;;;;;;5.20;4.90;;;15.00;99.90;;;15.84;73.09;97982.47;5217744;28;20247;-56
2022/06/03 00:20:59;;;;;;;5.18;4.75;;;15.00;99.90;;;15.76;72.12;97975.31;5218471;28;20193;-58
2022/06/03 00:24:05;;;;;;;5.38;4.95;;;14.90;99.90;;;15.69;73.38;97977.63;5217327;28;20686;-58
2022/06/03 00:27:00;;;;;;;5.65;5.15;;;14.80;99.90;;;15.71;72.62;97981.16;5219861;28;20209;-58
2022/06/03 00:29:59;;;;;;;5.22;4.93;;;14.80;99.90;;;15.68;73.51;97976.75;5212054;28;20267;-58
2022/06/03 00:33:20;;;;;;;5.57;5.18;;;14.80;99.90;;;15.60;71.90;97988.41;5215243;28;20209;-57
2022/06/03 00:36:13;;;;;;;5.47;5.07;;;14.80;99.90;;;15.60;73.04;97993.56;5216822;28;20358;-57
2022/06/03 00:39:17;;;;;;;6.00;5.50;;;14.80;99.90;;;15.51;73.42;97988.06;5223776;28;20922;-58
2022/06/03 00:42:21;;;;;;;5.47;4.97;;;14.70;99.90;;;15.55;72.61;97982.19;5214000;28;20255;-57
2022/06/03 00:45:26;;;;;;;4.85;4.45;;;14.60;99.90;;;15.54;72.70;97989.06;5215434;28;20189;-55
2022/06/03 00:48:26;;;;;;;5.85;5.35;;;14.70;99.90;;;15.52;74.65;97982.94;5215656;28;20225;-55
2022/06/03 00:51:31;;;;;;;5.75;5.35;;;14.80;99.90;;;15.59;73.84;97980.59;5220445;28;20674;-57
2022/06/03 00:55:01;;;;;;;5.40;5.00;;;14.90;99.90;;;15.55;73.15;97971.88;5215702;28;20657;-56
2022/06/03 00:57:58;;;;;;;5.60;5.20;;;14.80;99.90;;;15.57;73.46;97971.94;5215721;28;20240;-59
2022/06/03 01:00:36;;;;;;;6.10;5.60;;;14.70;99.90;;;15.56;73.30;97976.22;5218494;28;20735;-58
2022/06/03 01:03:19;;;;;;;5.07;4.78;;;14.80;99.90;;;15.62;73.35;97981.59;5213548;28;20284;-57
2022/06/03 01:06:28;;;;;;;5.63;5.30;;;14.80;99.90;;;15.55;73.13;97979.63;5219313;28;20204;-59
2022/06/03 01:09:24;;;;;;;5.40;5.00;;;14.70;99.90;;;15.46;72.75;97980.13;5220239;28;20639;-57
2022/06/03 01:12:14;;;;;;;5.90;5.50;;;14.60;99.90;;;15.42;73.83;97978.22;5219985;28;20197;-59
2022/06/03 01:15:10;;;;;;;5.40;5.10;;;14.60;99.90;;;15.33;74.35;97973.59;5214946;28;20233;-58
2022/06/03 01:17:58;;;;;;;5.50;5.10;;;14.50;99.90;;;15.29;73.86;97976.88;5217068;28;20770;-57
2022/06/03 01:20:37;;;;;;;5.22;4.82;;;14.40;99.90;;;15.21;74.51;97967.97;5218657;28;20224;-59
2022/06/03 01:23:48;;;;;;;5.50;5.10;;;14.40;99.90;;;15.19;74.30;97969.59;5221831;28;20216;-58
2022/06/03 01:26:43;;;;;;;5.95;5.13;;;14.30;99.90;;;15.19;74.20;97969.59;5214648;28;20339;-56
2022/06/03 01:29:34;;;;;;;6.15;5.72;;;14.30;99.90;;;15.12;74.85;97965.00;5213126;28;20240;-56
2022/06/03 01:32:56;;;;;;;5.05;4.75;;;14.30;99.90;;;15.05;74.72;97957.84;5220838;28;20237;-56
2022/06/03 01:36:12;;;;;;;5.72;5.32;;;14.20;99.90;;;15.02;75.55;97960.28;5218892;28;20590;-56
2022/06/03 01:39:23;;;;;;;5.40;4.97;;;14.20;99.90;;;15.08;75.23;97961.44;5220323;28;20221;-57
2022/06/03 01:42:36;;;;;;;5.78;5.40;;;14.30;99.90;;;15.03;74.58;97967.22;5218898;28;20194;-56
2022/06/03 01:45:33;;;;;;;5.80;5.40;;;14.20;99.90;;;15.00;74.33;97956.81;5214642;28;20197;-56
2022/06/03 01:48:27;;;;;;;6.38;5.88;;;14.20;99.90;;;14.94;74.87;97967.72;5214791;28;20221;-53
2022/06/03 01:51:29;;;;;;;5.57;5.18;;;14.10;99.90;;;14.90;75.31;97970.97;5217743;28;20288;-53
2022/06/03 01:54:45;;;;;;;6.90;5.50;;;14.10;99.90;;;14.92;76.18;97971.03;5216422;28;20615;-57
2022/06/03 01:57:37;;;;;;;5.15;4.82;;;14.10;99.90;;;14.93;75.29;97968.50;5218305;28;20221;-58
2022/06/03 02:00:27;;;;;;;5.53;5.03;;;14.10;99.90;;;14.87;75.58;97964.00;5220051;28;20201;-59
2022/06/03 02:03:57;;;;;;;5.65;5.25;;;14.00;99.90;;;14.85;76.08;97965.66;5215330;28;20208;-58
2022/06/03 02:07:32;;;;;;;5.68;5.28;;;14.00;99.90;;;14.90;76.25;97959.78;5216835;28;20229;-58
2022/06/03 02:10:42;;;;;;;5.15;4.75;;;14.00;99.90;;;14.84;75.57;97953.56;5213247;28;20229;-57
2022/06/03 02:13:51;;;;;;;5.50;5.13;;;14.00;99.90;;;14.77;76.00;97953.28;5216815;28;20261;-58
2022/06/03 02:17:09;;;;;;;5.75;5.35;;;13.90;99.90;;;14.67;75.61;97962.28;5218165;28;20193;-59
2022/06/03 02:20:46;;;;;;;5.72;5.30;;;13.80;99.90;;;14.53;76.72;97958.22;5216554;28;20629;-58
2022/06/03 02:23:54;;;;;;;5.70;5.30;;;13.70;99.90;;;14.43;77.51;97957.81;5216529;28;20248;-57
2022/06/03 02:26:55;;;;;;;5.65;5.28;;;13.70;99.90;;;14.42;76.23;97958.63;5217626;28;20205;-57
2022/06/03 02:30:26;;;;;;;5.75;5.22;;;13.60;99.90;;;14.43;77.15;97952.66;5219560;28;20242;-59
2022/06/03 02:33:46;;;;;;;5.45;5.00;;;13.70;99.90;;;14.41;77.90;97944.00;5193825;28;20221;-58
2022/06/03 02:37:08;;;;;;;5.50;5.20;;;13.70;99.90;;;14.40;77.50;97943.94;5212743;28;20233;-59
2022/06/03 02:40:28;;;;;;;5.35;4.95;;;13.60;99.90;;;14.38;76.80;97954.16;5156755;28;20200;-58
2022/06/03 02:44:03;;;;;;;5.43;5.05;;;13.60;99.90;;;14.33;77.26;97960.78;5215626;28;20227;-58
2022/06/03 02:47:05;;;;;;;5.45;5.15;;;13.50;99.90;;;14.34;76.59;97967.69;5196232;28;20204;-58
2022/06/03 02:50:01;;;;;;;5.20;4.90;;;13.50;99.90;;;14.35;77.30;97963.44;5221805;28;20196;-58
2022/06/03 02:53:04;;;;;;;5.18;4.78;;;13.50;99.90;;;14.28;77.24;97964.88;5221023;28;20657;-57
2022/06/03 02:56:09;;;;;;;5.55;5.15;;;13.50;99.90;;;14.31;76.60;97961.56;5218353;28;20620;-58
2022/06/03 02:59:26;;;;;;;5.70;5.18;;;13.50;99.90;;;14.26;77.92;97963.91;5211084;28;20249;-58
2022/06/03 03:02:31;;;;;;;5.70;5.40;;;13.50;99.90;;;14.27;77.75;97965.66;5222889;28;20236;-58
2022/06/03 03:05:36;;;;;;;5.13;4.75;;;13.50;99.90;;;14.26;78.44;97973.31;5216039;28;20271;-58
2022/06/03 03:08:50;;;;;;;4.90;4.60;;;13.50;99.90;;;14.28;78.13;97981.97;5191007;28;20307;-58
2022/06/03 03:12:04;;;;;;;5.35;4.95;;;13.50;99.90;;;14.25;77.60;97975.03;5221474;28;20278;-58
2022/06/03 03:15:13;;;;;;;5.45;5.10;;;13.40;99.90;;;14.27;77.26;97975.06;5198667;28;20251;-58
2022/06/03 03:18:44;;;;;;;5.75;5.35;;;13.40;99.90;;;14.14;77.40;97966.81;5216023;28;20236;-58
2022/06/03 03:21:38;;;;;;;5.30;4.93;;;13.30;99.90;;;14.14;75.81;97974.53;5221304;28;20193;-58
2022/06/03 03:24:53;;;;;;;5.35;4.95;;;13.20;99.90;;;14.15;75.73;97967.69;5216518;28;20209;-57
2022/06/03 03:27:52;;;;;;;5.18;4.88;;;13.30;99.90;;;14.10;77.52;97972.63;5217470;28;20257;-56
2022/06/03 03:30:30;;;;;;;5.18;4.88;;;13.30;99.90;;;14.04;77.26;97971.47;5214992;28;20229;-58
2022/06/03 03:33:28;;;;;;;5.20;4.90;;;13.20;99.90;;;14.19;77.78;97967.00;5222669;28;20237;-57
2022/06/03 03:36:40;;;;;;;5.35;5.05;;;13.40;99.90;;;14.17;78.02;97958.38;5221586;28;21199;-58
2022/06/03 03:40:03;;;;;;;6.00;5.68;;;13.40;99.90;;;14.10;78.03;97957.19;5221364;28;20251;-58
2022/06/03 03:43:12;;;;;;;5.70;5.30;;;13.40;99.90;;;14.14;78.45;97964.25;5219461;28;20201;-58
2022/06/03 03:46:39;;;;;;;5.30;4.97;;;13.20;99.90;;;14.17;78.16;97958.38;5216648;28;20198;-58
2022/06/03 03:50:11;;;;;;;5.50;5.03;;;13.30;99.90;;;14.16;77.67;97957.50;5204030;28;20232;-59
2022/06/03 03:53:32;;;;;;;5.10;4.80;;;13.30;99.90;;;14.14;77.79;97963.38;5219425;28;20197;-58
2022/06/03 03:56:56;;;;;;;5.70;5.40;;;13.30;99.90;;;14.10;77.65;97966.59;5221067;28;20221;-58
2022/06/03 04:00:06;;;;;;;5.60;5.30;;;13.30;99.90;;;14.09;77.97;97959.72;5220446;28;20229;-56
2022/06/03 04:03:18;;;;;;;4.88;4.57;;;13.20;99.90;;;14.11;76.83;97958.09;5218226;28;20201;-58
2022/06/03 04:06:25;;;;;;;5.28;4.97;;;13.20;99.90;;;14.12;78.49;97959.84;5220439;28;20661;-58
2022/06/03 04:09:32;;;;;;;5.35;4.95;;;13.30;99.90;;;14.11;78.13;97964.13;5219181;28;20595;-57
2022/06/03 04:12:35;;;;;;;5.40;5.00;;;13.30;99.90;;;14.17;77.94;97958.38;5215874;28;20201;-58
2022/06/03 04:16:13;;;;;;;4.75;4.55;;;13.30;99.90;;;14.21;77.00;97957.69;5221217;28;20697;-54
2022/06/03 04:19:28;;;;;;;4.75;4.45;;;13.30;99.90;;;14.21;77.58;97957.69;5221092;28;20267;-57
2022/06/03 04:22:45;;;;;;;5.55;5.15;;;13.30;99.90;;;14.27;77.34;97964.78;5218565;28;20603;-58
2022/06/03 04:26:13;;;;;;;5.28;4.95;;;13.30;99.90;;;14.16;78.47;97956.59;5194779;28;20225;-58
2022/06/03 04:29:34;;;;;;;5.50;5.00;;;13.30;99.90;;;14.05;77.13;97957.78;5213314;28;20271;-58
2022/06/03 04:32:47;;;;;;;5.60;5.30;;;13.20;99.90;;;14.11;77.75;97963.25;5215198;28;20209;-55
2022/06/03 04:36:12;;;;;;;5.88;5.47;;;13.20;99.90;;;14.15;78.22;97966.00;5216190;28;20198;-58
2022/06/03 04:39:50;;;;;;;5.50;5.10;;;13.30;99.90;;;14.22;78.18;97961.13;5177035;28;20256;-58
2022/06/03 04:43:23;;;;;;;10.93;8.93;;;13.40;99.90;;;14.37;79.55;97947.25;5217886;28;20202;-58
2022/06/03 04:46:45;;;;;;;5.93;5.47;;;13.50;99.90;;;14.67;77.17;97946.84;5200505;28;20201;-58
2022/06/03 04:50:40;;;;;;;6.22;5.72;;;13.80;99.90;;;15.09;76.65;97946.88;5219451;28;20245;-58
2022/06/03 04:54:08;;;;;;;5.60;5.20;;;14.20;99.90;;;15.58;73.90;97951.41;5222251;28;20206;-58
2022/06/03 04:57:20;;;;;;;5.72;5.18;;;14.60;99.90;;;16.17;71.20;97931.31;5217734;28;20197;-58
2022/06/03 05:00:22;;;;;;;5.55;5.13;;;15.40;99.90;;;16.83;67.88;97933.63;5219999;28;20305;-57
2022/06/03 05:03:52;;;;;;;5.50;5.10;;;15.90;99.90;;;17.67;65.12;97941.47;5222480;28;20197;-57
2022/06/03 05:07:31;;;;;;;4.82;4.40;;;16.70;99.90;;;17.84;63.15;97944.59;5220580;28;20192;-55
2022/06/03 05:11:15;;;;;;;4.80;4.50;;;16.70;99.90;;;18.58;61.35;97941.53;5220195;28;20635;-58
2022/06/03 05:14:46;;;;;;;4.97;4.57;;;17.30;99.90;;;19.23;59.45;97933.69;5211305;28;20232;-58
2022/06/03 05:18:08;;;;;;;4.82;4.50;;;18.00;99.90;;;19.70;58.03;97929.66;5215471;28;20271;-57
2022/06/03 05:21:33;;;;;;;5.95;5.45;;;18.40;99.80;;;20.44;55.58;97928.56;5220384;28;20244;-57
2022/06/03 05:24:57;;;;;;;4.57;4.30;;;19.10;98.40;;;20.98;53.91;97930.44;5215604;28;20642;-59
2022/06/03 05:28:18;;;;;;;4.63;4.32;;;19.50;97.70;;;21.44;51.10;97932.97;5219590;28;20291;-59
2022/06/03 05:32:07;;;;;;;4.78;4.43;;;20.00;95.50;;;21.46;51.75;97929.53;5205366;28;20235;-58
2022/06/03 05:35:24;;;;;;;4.32;4.13;;;20.10;95.50;;;21.73;51.44;97930.78;5219440;28;20204;-59
2022/06/03 05:38:27;;;;;;;4.95;4.50;;;20.00;95.90;;;22.15;50.07;97924.38;5217736;28;20725;-59
2022/06/03 05:44:45;;;;;;;4.40;4.00;;;20.60;95.40;;;22.53;49.73;97911.81;5215131;28;20255;-59
2022/06/03 05:47:24;;;;;;;4.82;4.10;;;20.90;94.90;;;22.84;48.09;97918.22;5216067;28;20263;-59
2022/06/03 05:50:03;;;;;;;3.75;3.55;;;21.00;94.00;;;23.10;47.76;97921.09;5217928;28;20244;-59
2022/06/03 05:52:52;;;;;;;5.00;4.60;;;21.10;94.10;;;23.23;47.89;97932.47;5219743;28;20197;-59
2022/06/03 05:55:40;;;;;;;4.93;4.53;;;21.20;94.00;;;23.46;46.40;97931.78;5216463;28;20746;-59
2022/06/03 05:58:32;;;;;;;4.43;4.07;;;21.30;93.20;;;23.56;46.59;97931.00;5218565;28;20249;-59
2022/06/03 06:01:41;;;;;;;4.75;4.35;;;21.50;93.30;;;23.98;45.49;97922.56;5211831;28;20232;-60
2022/06/03 06:04:25;;;;;;;5.13;4.57;;;21.70;92.60;;;23.76;44.56;97929.41;5210143;28;20204;-60
2022/06/03 06:07:08;;;;;;;4.82;4.43;;;21.80;91.90;;;23.47;45.86;97926.59;5216792;28;20303;-59
2022/06/03 06:09:52;;;;;;;4.40;4.10;;;21.70;92.20;;;24.26;45.04;97926.16;5220015;28;20259;-60
2022/06/03 06:12:51;;;;;;;4.95;4.40;;;22.00;92.30;;;24.62;43.28;97914.13;5221035;28;20193;-60
2022/06/03 06:16:00;;;;;;;4.53;4.22;;;22.30;91.10;;;24.78;43.83;97904.56;5217063;28;20202;-58
2022/06/03 06:18:50;;;;;;;4.55;4.15;;;22.40;91.10;;;24.85;43.45;97906.31;5219966;28;20689;-58
2022/06/03 06:22:09;;;;;;;4.07;3.78;;;22.60;91.30;;;25.38;43.19;97902.84;5214985;28;20251;-60
2022/06/03 06:24:58;;;;;;;4.85;4.40;;;22.80;91.30;;;25.68;41.83;97910.66;5150067;28;20215;-59
2022/06/03 06:28:19;;;;;;;4.63;4.32;;;23.30;90.40;;;25.42;42.72;97906.34;5219835;28;20217;-60
2022/06/03 06:31:27;;;;;;;4.68;4.00;;;23.10;90.70;;;25.06;44.09;97910.66;5178874;28;20238;-60
2022/06/03 06:34:27;;;;;;;4.18;3.88;;;22.80;91.30;;;25.49;42.46;97910.66;5176566;28;20253;-60
2022/06/03 06:37:45;;;;;;;4.72;4.40;;;23.20;90.50;;;26.24;41.17;97896.50;5210656;28;20782;-60
2022/06/03 06:40:33;;;;;;;4.88;4.28;;;23.80;89.50;;;26.72;39.67;97895.38;5221680;28;20249;-59
2022/06/03 06:43:24;;;;;;;4.13;3.78;;;24.30;87.50;;;26.62;40.88;97900.72;5222782;28;20208;-59
2022/06/03 06:46:09;;;;;;;4.07;3.78;;;24.50;88.20;;;27.45;39.38;97897.47;5219388;28;20287;-59
2022/06/03 06:48:55;;;;;;;4.20;3.90;;;25.20;86.00;;;27.98;38.58;97894.28;5216998;28;20254;-59
2022/06/03 06:51:55;;;;;;;4.47;4.07;;;25.60;85.20;;;27.88;38.61;97891.78;5216732;28;20247;-59
2022/06/03 06:54:41;;;;;;;4.38;3.97;;;25.70;85.10;;;27.97;38.58;97886.44;5227286;28;20669;-58
2022/06/03 06:57:20;;;;;;;4.00;3.70;;;25.80;85.00;;;28.28;38.38;97887.78;5219681;28;20305;-60
2022/06/03 07:00:04;;;;;;;4.00;3.70;;;26.00;85.10;;;28.42;38.06;97892.03;5226423;28;20197;-58
2022/06/03 07:02:45;;;;;;;4.40;4.10;;;26.10;83.60;;;28.49;37.01;97891.03;5220964;28;20330;-58
2022/06/03 07:05:24;;;;;;;4.10;3.78;;;26.50;81.00;;;28.61;37.11;97885.59;5219970;28;20192;-59
2022/06/03 07:08:03;;;;;;;3.95;3.58;;;26.50;82.40;;;28.72;37.37;97888.94;5219816;28;20256;-59
2022/06/03 07:10:45;;;;;;;4.22;3.92;;;26.40;82.40;;;28.85;37.28;97881.72;5222439;28;20694;-60
2022/06/03 07:13:25;;;;;;;4.28;3.67;;;26.50;83.50;;;28.70;37.47;97874.94;5218227;28;20652;-60
2022/06/03 07:16:10;;;;;;;4.30;4.00;;;26.90;81.20;;;28.50;37.84;97880.50;5214090;28;20197;-59
2022/06/03 07:22:02;;;;;;;4.13;3.80;;;26.90;82.00;;;29.22;37.20;97885.53;5217188;28;20201;-60
2022/06/03 07:24:43;;;;;;;4.57;4.03;;;27.30;81.40;;;28.90;37.01;97876.38;5225490;28;20200;-60
2022/06/03 07:27:24;;;;;;;3.85;3.55;;;27.10;80.60;;;29.24;37.00;97876.72;5216593;28;20315;-60
2022/06/03 07:30:06;;;;;;;4.13;3.83;;;27.10;80.90;;;29.29;37.34;97868.75;5219177;28;20701;-59
2022/06/03 07:32:48;;;;;;;4.13;3.83;;;27.10;81.20;;;28.58;38.15;97864.59;5217074;28;20198;-60
2022/06/03 07:35:29;;;;;;;4.03;3.83;;;27.10;81.20;;;28.96;37.21;97857.88;5223260;28;20604;-59
2022/06/03 07:38:07;;;;;;;4.30;4.00;;;26.80;82.10;;;29.01;38.62;97855.16;5223889;28;20256;-60
2022/06/03 07:40:45;;;;;;;4.55;4.10;;;27.00;82.90;;;29.07;38.17;97853.31;5222637;28;20189;-60
2022/06/03 07:43:25;;;;;;;3.80;3.50;;;27.00;83.00;;;29.54;37.04;97835.78;5222927;28;20254;-60
2022/06/03 07:46:04;;;;;;;4.60;4.20;;;27.20;82.10;;;29.50;37.08;97841.13;5224320;28;20242;-60
2022/06/03 07:48:40;;;;;;;4.05;3.75;;;27.50;80.60;;;29.70;36.66;97839.00;5217857;28;20311;-60
2022/06/03 07:51:22;;;;;;;4.03;3.72;;;27.70;81.30;;;30.27;36.31;97829.94;5222250;28;20290;-58
2022/06/03 07:54:00;;;;;;;4.25;3.95;;;28.20;80.60;;;30.69;35.23;97843.06;5222211;28;20282;-61
2022/06/03 07:56:37;;;;;;;4.03;3.63;;;28.30;78.80;;;30.86;35.64;97840.91;5223955;28;20247;-61
2022/06/03 07:59:20;;;;;;;4.03;3.72;;;28.30;80.60;;;31.08;34.74;97830.69;5219529;28;20644;-61
2022/06/03 08:02:01;;;;;;;3.92;3.63;;;28.60;79.10;;;31.28;34.45;97830.16;5222836;28;20197;-60
2022/06/03 08:04:38;;;;;;;3.88;3.40;;;28.80;79.00;;;31.55;34.44;97825.06;5221005;28;20243;-61
2022/06/03 08:13:11;;;;;;;4.00;3.70;;;29.20;78.50;;;31.31;34.60;97824.78;5221511;28;20228;-61
2022/06/03 08:15:54;;;;;;;3.63;3.33;;;29.00;78.80;;;31.28;34.74;97826.63;5215993;28;20638;-61
2022/06/03 08:18:33;;;;;;;3.65;3.45;;;29.20;78.20;;;31.34;35.05;97822.06;5223248;28;20216;-61
2022/06/03 08:21:13;;;;;;;3.70;3.40;;;29.30;77.90;;;31.12;35.27;97823.53;5223025;28;20717;-61
2022/06/03 08:23:46;;;;;;;4.00;3.60;;;29.10;78.20;;;30.98;36.49;97814.19;5214235;28;20233;-61
2022/06/03 08:26:26;;;;;;;3.53;3.33;;;29.30;79.60;;;30.82;36.02;97806.69;5219596;28;20278;-61
2022/06/03 08:29:12;;;;;;;3.53;3.25;;;29.30;78.00;;;30.92;35.14;97806.44;5221518;28;20204;-60
2022/06/03 08:31:46;;;;;;;3.50;3.30;;;29.30;77.10;;;31.03;36.03;97807.94;5212487;28;20243;-60
2022/06/03 08:34:26;;;;;;;3.20;3.00;;;29.50;77.70;;;30.85;37.14;97807.50;5216023;28;20204;-61
2022/06/03 08:37:01;;;;;;;4.07;3.58;;;29.60;78.70;;;30.77;35.46;97792.72;5223849;28;20629;-61
2022/06/03 08:39:35;;;;;;;3.55;3.30;;;29.40;76.30;;;30.48;36.06;97795.16;5220964;28;20722;-59
2022/06/03 08:42:31;;;;;;;3.40;3.20;;;29.40;76.30;;;30.44;35.98;97787.34;5211828;28;20200;-61
2022/06/03 08:45:17;;;;;;;3.65;3.38;;;29.00;76.80;;;30.72;36.50;97798.13;5224466;28;20196;-61
2022/06/03 08:47:55;;;;;;;3.95;3.50;;;29.40;77.20;;;30.96;35.78;97801.94;5216832;28;20272;-61
2022/06/03 08:50:35;;;;;;;3.75;3.50;;;29.70;76.60;;;30.87;35.45;97800.38;5222990;28;20766;-61
2022/06/03 08:53:23;;;;;;;3.80;3.58;;;29.60;75.70;;;30.43;35.70;97789.13;5220409;28;20223;-59
2022/06/03 08:56:00;;;;;;;3.60;3.30;;;29.30;75.90;;;30.71;36.62;97793.75;5223121;28;20201;-60
2022/06/03 08:58:44;;;;;;;3.33;3.13;;;29.60;77.60;;;30.95;36.21;97798.44;5218845;28;20307;-58
2022/06/03 09:01:30;;;;;;;3.70;3.45;;;29.90;76.40;;;31.00;34.72;97792.19;5216418;28;20189;-57
2022/06/03 09:04:15;;;;;;;3.60;3.28;;;30.00;74.50;;;31.08;35.10;97779.66;5216824;28;20298;-59
2022/06/03 09:07:00;;;;;;;3.47;3.28;;;29.80;73.90;;;31.23;35.29;97775.72;5223094;28;20640;-60
2022/06/03 09:09:44;;;;;;;4.00;3.70;;;30.10;74.80;;;30.75;35.11;97772.50;5220934;28;20232;-59
2022/06/03 09:12:34;;;;;;;3.50;3.13;;;29.80;74.30;;;30.51;36.69;97766.06;5222401;28;20254;-58
2022/06/03 09:15:11;;;;;;;3.58;3.28;;;29.50;76.50;;;30.88;35.78;97770.47;5210782;28;20579;-58
2022/06/03 09:17:49;;;;;;;3.92;3.42;;;30.00;75.10;;;30.90;35.53;97762.50;5209754;28;20700;-57
2022/06/03 09:20:27;;;;;;;3.83;3.47;;;30.00;74.80;;;30.61;36.14;97760.56;5218279;28;20200;-58
2022/06/03 09:23:03;;;;;;;3.95;3.63;;;29.70;75.60;;;30.40;36.52;97754.91;5219340;28;20232;-56
2022/06/03 09:25:44;;;;;;;3.90;3.60;;;29.40;76.10;;;30.18;36.83;97756.28;5215993;28;20193;-56
2022/06/03 09:28:24;;;;;;;3.15;2.95;;;29.00;76.90;;;30.08;37.63;97748.59;5211584;28;20254;-61
2022/06/03 09:30:59;;;;;;;3.97;3.67;;;28.90;78.30;;;29.52;37.87;97745.38;5212175;28;20244;-59
2022/06/03 09:33:34;;;;;;;4.10;3.80;;;28.40;77.60;;;29.17;38.02;97741.69;5213511;28;20198;-56
2022/06/03 09:36:13;;;;;;;4.53;3.67;;;28.10;78.50;;;29.41;38.50;97727.16;5217398;28;20208;-60
2022/06/03 09:38:52;;;;;;;3.55;3.33;;;28.20;78.90;;;29.74;39.05;97723.88;5216485;28;20225;-60
2022/06/03 09:41:31;;;;;;;3.80;3.50;;;28.60;80.20;;;29.90;38.63;97714.72;5207794;28;20262;-56
2022/06/03 09:44:06;;;;;;;3.83;3.53;;;29.00;78.90;;;29.81;37.63;97709.66;5214566;28;20299;-57
2022/06/03 09:46:41;;;;;;;3.65;3.45;;;29.00;77.20;;;29.78;38.17;97707.09;5212266;28;20205;-61
2022/06/03 09:49:19;;;;;;;3.95;3.65;;;28.80;77.60;;;29.83;38.00;97702.59;5214391;28;20208;-57
2022/06/03 09:51:59;;;;;;;3.95;3.65;;;29.00;78.00;;;29.55;38.46;97708.41;5210851;28;20205;-57
2022/06/03 09:54:35;;;;;;;3.53;3.33;;;28.80;77.80;;;29.47;39.00;97699.81;5220935;28;20201;-58
2022/06/03 09:57:17;;;;;;;3.60;3.40;;;28.70;78.90;;;29.79;38.81;97698.28;5211747;28;20224;-53
2022/06/03 09:59:57;;;;;;;3.55;3.25;;;29.00;78.10;;;29.80;39.28;97698.25;5213092;28;20248;-53
2022/06/03 10:02:32;;;;;;;3.47;3.28;;;28.90;79.80;;;29.76;38.50;97695.72;5214117;28;20208;-52
2022/06/03 10:05:07;;;;;;;3.95;3.65;;;29.10;78.20;;;30.06;39.08;97699.44;5217909;28;20232;-56
2022/06/03 10:07:40;;;;;;;3.53;3.33;;;29.30;79.40;;;30.34;37.29;97701.44;5217740;28;20262;-55
2022/06/03 10:13:11;;;;;;;3.63;3.28;;;29.70;77.10;;;30.47;37.47;97687.88;5215140;28;20208;-55
2022/06/03 10:15:53;;;;;;;4.93;4.38;;;29.70;76.70;;;29.86;38.14;97703.38;5216489;28;20684;-57
2022/06/03 10:18:35;;;;;;;4.00;3.70;;;29.40;77.40;;;29.82;39.10;97696.47;5217405;28;20224;-57
2022/06/03 10:21:33;;;;;;;4.10;3.75;;;28.90;79.20;;;29.91;40.87;97689.25;5219854;28;20687;-55
2022/06/03 10:24:07;;;;;;;3.97;3.58;;;29.10;81.40;;;30.34;39.11;97699.66;5207157;28;20263;-55
2022/06/03 10:26:49;;;;;;;3.63;3.42;;;29.70;78.90;;;30.26;37.84;97689.28;5211651;28;20196;-55
2022/06/03 10:29:25;;;;;;;3.90;3.60;;;29.50;78.00;;;30.59;37.95;97691.13;5214509;28;20634;-53
2022/06/03 10:32:03;;;;;;;3.70;3.40;;;29.80;78.50;;;30.82;35.94;97695.81;5207141;28;20275;-56
2022/06/03 10:34:39;;;;;;;3.35;3.08;;;30.00;75.30;;;30.48;37.35;97694.91;5210955;28;20656;-56
2022/06/03 10:37:18;;;;;;;3.78;3.38;;;29.70;76.00;;;30.33;37.07;97697.91;5214237;28;20220;-55
2022/06/03 10:39:56;;;;;;;3.53;3.20;;;29.50;76.80;;;30.22;38.39;97684.16;5216177;28;20262;-55
2022/06/03 10:42:29;;;;;;;3.67;3.38;;;29.50;77.30;;;30.46;38.04;97678.25;5214114;28;20536;-55
2022/06/03 10:45:10;;;;;;;3.13;2.92;;;29.70;78.20;;;30.66;36.21;97675.09;5209274;28;20615;-57
2022/06/03 10:47:45;;;;;;;3.45;3.20;;;29.80;74.70;;;30.84;36.35;97675.53;5210291;28;20399;-56
2022/06/03 10:50:29;;;;;;;3.08;2.88;;;30.00;75.30;;;30.88;37.38;97670.16;5219050;28;20210;-54
2022/06/03 11:02:05;;;;;;;2.70;2.50;;;30.00;71.30;;;30.78;33.94;97673.91;5211584;28;20263;-58
2022/06/03 11:04:40;;;;;;;2.50;2.30;;;30.00;70.90;;;30.64;33.53;97670.75;5206272;28;20195;-56
2022/06/03 11:07:26;;;;;;;3.13;2.10;;;29.70;70.10;;;30.77;32.52;97672.16;5207642;28;20359;-59
2022/06/03 11:10:01;;;;;;;2.15;2.00;;;29.90;69.30;;;30.70;33.71;97671.44;5211560;28;20516;-53
2022/06/03 11:12:45;;;;;;;2.55;2.28;;;29.90;69.70;;;30.47;34.23;97674.69;5212381;28;20306;-59
2022/06/03 11:15:32;;;;;;;2.45;2.25;;;29.80;70.70;;;30.64;34.23;97681.31;5213419;28;20734;-58
2022/06/03 11:18:19;;;;;;;2.63;2.25;;;29.90;70.80;;;30.79;33.94;97680.97;5213529;28;20228;-59
2022/06/03 11:20:55;;;;;;;2.30;2.20;;;30.00;70.00;;;30.80;34.00;97687.09;5208421;28;20201;-60
2022/06/03 11:23:28;;;;;;;3.60;2.55;;;30.00;71.70;;;31.07;34.26;97680.19;5214051;28;20204;-59
2022/06/03 11:26:01;;;;;;;2.40;2.20;;;30.20;71.40;;;31.26;33.09;97681.41;5209278;28;20233;-59
2022/06/03 11:28:43;;;;;;;2.55;2.35;;;30.40;69.30;;;31.46;32.47;97682.63;5219721;28;20247;-58
2022/06/03 11:31:23;;;;;;;2.45;2.35;;;30.60;68.80;;;31.51;32.18;97681.59;5216498;28;20235;-62
2022/06/03 11:34:03;;;;;;;3.00;2.17;;;30.60;68.40;;;31.54;31.53;97678.84;5210665;28;20204;-57
2022/06/03 11:36:42;;;;;;;2.75;2.40;;;30.60;67.70;;;31.27;31.32;97683.13;5210334;28;20201;-59
2022/06/03 11:39:26;;;;;;;2.28;2.17;;;30.30;67.10;;;31.32;32.37;97685.63;5212065;28;20627;-57
2022/06/03 11:42:05;;;;;;;2.40;2.20;;;30.30;69.10;;;31.11;31.98;97688.00;5211094;28;20292;-59
2022/06/03 11:44:42;;;;;;;2.65;2.00;;;30.10;67.80;;;31.11;32.53;97692.41;5212887;28;20196;-59
2022/06/03 11:47:20;;;;;;;2.38;2.17;;;30.00;69.10;;;31.28;31.95;97698.06;5210725;28;20231;-55
2022/06/03 11:49:55;;;;;;;2.72;2.53;;;30.20;68.00;;;31.22;32.59;97698.25;5212530;28;20197;-56
2022/06/03 11:52:29;;;;;;;2.60;2.40;;;30.10;68.70;;;31.36;31.50;97690.84;5211218;28;20220;-59
2022/06/03 11:55:02;;;;;;;2.90;2.25;;;30.20;68.10;;;31.17;31.59;97686.94;5219401;28;20388;-57
2022/06/03 11:57:39;;;;;;;2.58;2.38;;;30.10;67.10;;;31.20;32.03;97678.94;5211945;28;20224;-56
2022/06/03 12:00:19;;;;;;;2.53;2.42;;;30.00;68.20;;;31.28;32.39;97689.25;5213043;28;20247;-55
2022/06/03 12:03:08;;;;;;;2.30;2.10;;;30.10;69.50;;;31.28;32.79;97690.16;5213540;28;20197;-56
2022/06/03 12:05:51;;;;;;;2.67;2.40;;;30.00;69.40;;;31.24;34.14;97700.84;5216910;28;20312;-59
2022/06/03 12:08:31;;;;;;;2.95;2.70;;;30.00;71.90;;;31.28;33.58;97707.75;5215953;28;20640;-56
2022/06/03 12:13:13;;;;;;;2.40;2.30;;;30.00;70.70;;;31.33;33.95;97704.06;5213281;28;20238;-55
2022/06/03 12:14:19;;;;;;;2.35;2.25;;;30.10;71.60;;;31.39;35.16;97693.38;5213175;28;20463;-56
2022/06/03 12:16:56;;;;;;;2.35;2.25;;;30.10;74.50;;;31.05;34.72;97679.34;5220617;28;20806;-56
2022/06/03 12:19:41;;;;;;;2.88;2.67;;;29.90;72.80;;;31.10;33.92;97680.94;5219800;28;20288;-55
2022/06/03 12:22:39;;;;;;;2.80;2.60;;;29.80;71.50;;;30.93;35.87;97688.47;5213605;28;20201;-59
2022/06/03 12:26:07;;;;;;;2.85;2.60;;;29.60;74.50;;;30.78;37.09;97689.72;5220468;28;20671;-58
2022/06/03 12:28:46;;;;;;;3.03;2.67;;;29.50;76.70;;;30.90;36.99;97683.28;5213377;28;20774;-58
2022/06/03 12:31:37;;;;;;;3.10;2.75;;;29.60;76.40;;;30.79;36.13;97685.31;5213026;28;20205;-60
2022/06/03 12:34:23;;;;;;;2.60;2.50;;;29.40;74.80;;;30.85;36.19;97680.78;5216266;28;20197;-60
2022/06/03 12:37:01;;;;;;;3.05;2.40;;;29.50;74.90;;;30.81;35.76;97676.47;5212186;28;20225;-57
2022/06/03 12:40:02;;;;;;;2.70;2.47;;;29.50;74.90;;;30.83;35.94;97665.91;5218610;28;20223;-58